DF7ER-12 Weather Reports


Display with metric or nautical units.
time (UTC)temp
F
wind
direction
speed
MPH
gust
MPH
rain 1hr
in
rain 24hr
in
rain mn
in
humidity
%
barometer
mb
20260506102144 53 0.0 0.0 0.00 0.00 0.00 100 997.0
20260506101644 53 0.0 0.0 0.00 0.00 0.00 100 996.9
20260506101144 53 0.0 0.0 0.00 0.00 0.00 100 997.0
20260506100644 53 0.0 0.0 0.00 0.00 0.00 100 996.9
20260506100144 53 0.0 0.0 0.00 0.00 0.00 100 997.0
20260506095644 54 0.0 0.0 0.00 0.00 0.00 100 997.0
20260506095144 53 0.0 0.0 0.00 0.00 0.00 100 996.9
20260506094644 53 0.0 0.0 0.00 0.00 0.00 100 996.9
20260506094144 53 0.0 0.0 0.00 0.00 0.00 100 996.9
20260506093644 53 0.0 0.0 0.00 0.00 0.00 100 996.9
20260506093144 53 0.0 0.0 0.00 0.00 0.00 100 996.8
20260506092644 53 0.0 0.0 0.00 0.00 0.00 100 996.8
20260506092144 53 0.0 0.0 0.00 0.00 0.00 100 996.8
20260506091644 52 0.0 0.0 0.00 0.00 0.00 100 996.8
20260506091144 52 0.0 0.0 0.00 0.00 0.00 100 996.8
20260506090644 53 0.0 0.0 0.00 0.00 0.00 100 996.8
20260506090144 53 0.0 0.0 0.00 0.00 0.00 100 996.8
20260506085644 51 0.0 0.0 0.00 0.00 0.00 100 996.8
20260506085144 52 0.0 0.0 0.00 0.00 0.00 100 996.8
20260506084644 52 0.0 0.0 0.00 0.00 0.00 100 996.8
20260506084144 52 0.0 0.0 0.00 0.00 0.00 100 996.8
20260506083644 52 0.0 0.0 0.00 0.00 0.00 100 996.7
20260506083144 51 0.0 0.0 0.00 0.00 0.00 100 996.8
20260506082644 52 0.0 0.0 0.00 0.00 0.00 100 996.7
20260506082144 52 0.0 0.0 0.00 0.00 0.00 100 996.7
20260506081644 51 0.0 0.0 0.00 0.00 0.00 100 996.7
20260506081144 51 0.0 0.0 0.00 0.00 0.00 100 996.7
20260506080644 51 0.0 0.0 0.00 0.00 0.00 100 996.6
20260506080144 51 0.0 0.0 0.00 0.00 0.00 100 996.6
20260506073144 50 0.0 0.0 0.00 0.00 0.00 100 996.4
20260506072644 50 0.0 0.0 0.00 0.00 0.00 100 996.4
20260506072144 50 0.0 0.0 0.00 0.00 0.00 100 996.3
20260506071644 50 0.0 0.0 0.00 0.00 0.00 100 996.3
20260506071144 50 0.0 0.0 0.00 0.00 0.00 100 996.3
20260506070644 50 0.0 0.0 0.00 0.00 0.00 100 996.3
20260506070144 50 0.0 0.0 0.00 0.00 0.00 100 996.3
20260506062144 51 0.0 0.0 0.00 0.00 0.00 100 996.1
20260506061644 50 0.0 0.0 0.00 0.00 0.00 100 996.1
20260506061144 50 0.0 0.0 0.00 0.00 0.00 100 996.1
20260506060644 51 0.0 0.0 0.00 0.00 0.00 100 996.0
20260506060144 50 0.0 0.0 0.00 0.00 0.00 100 996.0
20260506051144 51 0.0 0.0 0.00 0.00 0.00 97 996.0
20260506050644 50 0.0 0.0 0.00 0.00 0.00 100 996.0
20260506050144 51 0.0 0.0 0.00 0.00 0.00 100 996.0
20260506044644 51 0.0 0.0 0.00 0.00 0.00 100 996.1
20260506044144 51 0.0 0.0 0.00 0.00 0.00 100 996.1
20260506043644 51 0.0 0.0 0.00 0.00 0.00 100 996.2
20260506043144 52 0.0 0.0 0.00 0.00 0.00 100 996.2
20260506042644 51 0.0 0.0 0.00 0.00 0.00 100 996.2
20260506042144 51 0.0 0.0 0.00 0.00 0.00 100 996.2
20260506041644 51 0.0 0.0 0.00 0.00 0.00 100 996.3
20260506041144 51 0.0 0.0 0.00 0.00 0.00 100 996.3
20260506040644 52 0.0 0.0 0.00 0.00 0.00 100 996.3
20260506040144 52 0.0 0.0 0.00 0.00 0.00 100 996.3
20260506035644 53 0.0 0.0 0.00 0.00 0.00 100 996.3
20260506035144 53 0.0 0.0 0.00 0.00 0.00 98 996.4
20260506034644 52 0.0 0.0 0.00 0.00 0.00 100 996.3
20260506034144 53 0.0 0.0 0.00 0.00 0.00 100 996.3
20260506033644 53 0.0 0.0 0.00 0.00 0.00 100 996.4
20260506033144 53 0.0 0.0 0.00 0.00 0.00 100 996.4
20260506032644 52 0.0 0.0 0.00 0.00 0.00 100 996.4
20260506032144 53 0.0 0.0 0.00 0.00 0.00 100 996.4
20260506031644 53 0.0 0.0 0.00 0.00 0.00 100 996.4
20260506031144 54 0.0 0.0 0.00 0.00 0.00 98 996.5
20260506030644 54 0.0 0.0 0.00 0.00 0.00 100 996.5
20260505164742 58 0.0 0.0 0.00 0.00 0.00 100 998.7
20260505164242 58 0.0 0.0 0.00 0.00 0.00 100 998.6
20260505163742 58 0.0 0.0 0.00 0.00 0.00 100 998.7
20260505163242 58 0.0 0.0 0.00 0.00 0.00 100 998.6
20260505162742 59 0.0 0.0 0.00 0.00 0.00 100 998.6
20260505162242 58 0.0 0.0 0.00 0.00 0.00 100 998.7
20260505161807 59 0.0 0.0 0.00 0.00 0.00 100 998.7
20260505161242 58 0.0 0.0 0.00 0.00 0.00 100 998.8
20260505160742 58 0.0 0.0 0.00 0.00 0.00 100 998.8
20260505160242 58 0.0 0.0 0.00 0.00 0.00 100 998.8
20260505152643 59 0.0 0.0 0.00 0.00 0.00 100 999.0
20260505152143 59 0.0 0.0 0.00 0.00 0.00 100 999.1
20260505151643 60 0.0 0.0 0.00 0.00 0.00 97 999.1
20260505151143 59 0.0 0.0 0.00 0.00 0.00 100 999.1
20260505150643 61 0.0 0.0 0.00 0.00 0.00 97 999.1
20260505150143 60 0.0 0.0 0.00 0.00 0.00 98 999.1
20260505140643 60 0.0 0.0 0.00 0.00 0.00 98 999.5
20260505140143 60 0.0 0.0 0.00 0.00 0.00 100 999.5
20260505130143 60 0.0 0.0 0.00 0.00 0.00 100 999.8
20260505124643 58 0.0 0.0 0.00 0.00 0.00 100 999.8
20260505124143 59 0.0 0.0 0.00 0.00 0.00 100 999.8
20260505123643 59 0.0 0.0 0.00 0.00 0.00 100 999.7
20260505123143 59 0.0 0.0 0.00 0.00 0.00 100 999.7
20260505122643 59 0.0 0.0 0.00 0.00 0.00 100 999.8
20260505122143 59 0.0 0.0 0.00 0.00 0.00 100 999.7
20260505121643 59 0.0 0.0 0.00 0.00 0.00 100 999.8
20260505121143 60 0.0 0.0 0.00 0.00 0.00 100 999.8
20260505120643 60 0.0 0.0 0.00 0.00 0.00 100 999.8
20260505120143 59 0.0 0.0 0.00 0.00 0.00 100 999.8
20260505115643 60 0.0 0.0 0.00 0.00 0.00 100 999.8
20260505115143 59 0.0 0.0 0.00 0.00 0.00 100 999.8
20260505114643 59 0.0 0.0 0.00 0.00 0.00 100 999.9
20260505114143 59 0.0 0.0 0.00 0.00 0.00 100 999.9
20260505113643 58 0.0 0.0 0.00 0.00 0.00 100 999.9
20260505113143 59 0.0 0.0 0.00 0.00 0.00 100 1000.0
20260505112643 58 0.0 0.0 0.00 0.00 0.00 100 999.9
20260505112143 58 0.0 0.0 0.00 0.00 0.00 100 999.9
20260505111643 59 0.0 0.0 0.00 0.00 0.00 100 999.9
20260505111143 59 0.0 0.0 0.00 0.00 0.00 100 1000.0
20260505110643 58 0.0 0.0 0.00 0.00 0.00 100 999.9
20260505110143 58 0.0 0.0 0.00 0.00 0.00 100 1000.0